首页
METAR-TAF:

METAR-TAF

机场 :

McGregor Executive Airport

韋科, 得克萨斯州, 美国

纬度: 31-29N, 经度: 097-19W, 海拔: 180米

当前天气观测

该预报发布于1小时和7分钟前的19:56 UTC
风速11节,风向南转南东
温度 26°C
湿度 74%
气压 1019 hPa
能見度: 16.1公里
少量云层高于1900英尺
多云层高于6000英尺

METAR: KPWG 241956Z AUTO 15011KT 10SM FEW019 BKN060 26/21 A3008 RMK AO2 SLP180 T02610211

时间: 16:03 (21:03 UTC)


TAF: 丢失

超过4000个机场的气象观测和天气预报(METAR&TAF报告)。

可查询的气象台以黄色和红色小点在地图上表示。

将鼠标移到小点上方,可查看气象台名称。

然后点击查看天气观测和预报。

如需切换地图:点击带黑十字的绿色按钮放大地图;点击带横线的绿色按钮缩小地图;或者点击绿色箭头查看邻近地区的地图。


METAR-TAF: